createdAt,value
2019-03-24T00:01:40.747Z,30.60
2019-03-24T00:04:02.768Z,31.20
2019-03-24T00:06:32.874Z,32.37
2019-03-24T00:09:02.848Z,30.47
2019-03-24T00:11:32.639Z,33.90
2019-03-24T00:14:02.899Z,33.27
2019-03-24T00:16:32.753Z,33.90
2019-03-24T00:19:02.480Z,30.90
2019-03-24T00:21:32.503Z,31.07
2019-03-24T00:24:02.659Z,31.63
2019-03-24T00:26:33.843Z,32.58
2019-03-24T00:29:03.591Z,31.83
2019-03-24T00:31:33.670Z,32.07
2019-03-24T00:34:03.388Z,32.57
2019-03-24T00:36:36.140Z,32.90
2019-03-24T00:39:07.122Z,32.90
2019-03-24T00:41:37.300Z,31.77
2019-03-24T00:44:07.155Z,32.70
2019-03-24T00:46:37.407Z,31.37
2019-03-24T00:49:07.206Z,29.90
2019-03-24T00:51:37.011Z,32.37
2019-03-24T00:54:06.707Z,32.23
2019-03-24T00:56:36.511Z,33.97
2019-03-24T00:59:06.245Z,33.27
2019-03-24T01:01:36.010Z,32.80
2019-03-24T01:04:06.996Z,34.63
2019-03-24T01:06:36.772Z,35.58
2019-03-24T01:09:09.013Z,34.18
2019-03-24T01:11:38.955Z,34.10
2019-03-24T01:14:08.797Z,34.73
2019-03-24T01:16:38.603Z,34.53
2019-03-24T01:19:08.760Z,33.10
2019-03-24T01:21:38.477Z,34.83
2019-03-24T01:24:08.673Z,35.60
2019-03-24T01:26:38.908Z,35.73
2019-03-24T01:29:08.711Z,34.25
2019-03-24T01:31:38.436Z,34.85
2019-03-24T01:34:08.512Z,35.53
2019-03-24T01:36:38.324Z,34.93
2019-03-24T01:39:08.515Z,33.50
2019-03-24T01:41:38.638Z,35.97
2019-03-24T01:44:08.387Z,35.87
2019-03-24T01:46:38.304Z,33.37
2019-03-24T01:49:08.143Z,32.13
2019-03-24T01:51:37.885Z,34.75
2019-03-24T01:54:07.747Z,34.57
2019-03-24T01:56:37.490Z,34.57
2019-03-24T01:59:07.284Z,34.87
2019-03-24T02:01:37.154Z,36.23
2019-03-24T02:04:06.880Z,34.57
2019-03-24T02:06:38.598Z,36.73
2019-03-24T02:09:09.803Z,35.57
2019-03-24T02:11:39.561Z,34.43
2019-03-24T02:14:09.353Z,34.70
2019-03-24T02:16:39.188Z,38.55
2019-03-24T02:19:09.040Z,36.97
2019-03-24T02:21:38.888Z,33.83
2019-03-24T02:24:08.702Z,34.60
2019-03-24T02:26:38.561Z,36.13
2019-03-24T02:29:08.444Z,34.50
2019-03-24T02:31:38.164Z,37.33
2019-03-24T02:34:07.907Z,37.17
2019-03-24T02:36:38.130Z,37.43
2019-03-24T02:39:08.466Z,35.90
2019-03-24T02:41:38.337Z,38.30
2019-03-24T02:44:08.054Z,38.60
2019-03-24T02:46:37.878Z,37.65
2019-03-24T02:49:07.719Z,36.27
2019-03-24T02:51:37.984Z,37.27
2019-03-24T02:54:08.154Z,36.63
2019-03-24T02:56:38.212Z,38.20
2019-03-24T02:59:08.064Z,36.53
2019-03-24T03:01:38.159Z,36.23
2019-03-24T03:04:07.887Z,37.87
2019-03-24T03:06:37.944Z,36.10
2019-03-24T03:09:07.996Z,40.75
2019-03-24T03:11:37.765Z,39.53
2019-03-24T03:14:07.507Z,40.03
2019-03-24T03:16:38.892Z,39.20
2019-03-24T03:19:08.959Z,38.20
2019-03-24T03:21:39.616Z,40.58
2019-03-24T03:24:09.523Z,38.53
2019-03-24T03:26:39.373Z,41.63
2019-03-24T03:29:09.177Z,40.80
2019-03-24T03:31:40.245Z,42.38
2019-03-24T03:34:10.145Z,39.57
2019-03-24T03:36:40.055Z,40.60
2019-03-24T03:39:09.922Z,38.38
2019-03-24T03:41:39.673Z,41.50
2019-03-24T03:44:09.470Z,42.30
2019-03-24T03:46:51.801Z,40.00
2019-03-24T03:49:11.640Z,40.80
2019-03-24T03:51:41.407Z,39.73
2019-03-24T03:54:11.293Z,40.60
2019-03-24T03:56:41.159Z,37.87
2019-03-24T03:59:10.956Z,40.00
2019-03-24T04:01:40.960Z,41.53
2019-03-24T04:04:10.850Z,39.48
2019-03-24T04:06:40.634Z,39.70
2019-03-24T04:09:10.464Z,41.73
2019-03-24T04:11:40.558Z,40.77
2019-03-24T04:14:10.463Z,39.90
2019-03-24T04:16:40.601Z,42.57
2019-03-24T04:19:10.418Z,42.50
2019-03-24T04:21:40.151Z,40.23
2019-03-24T04:24:09.892Z,40.27
2019-03-24T04:26:39.752Z,39.20
2019-03-24T04:29:09.557Z,40.23
2019-03-24T04:31:39.593Z,41.63
2019-03-24T04:34:09.394Z,39.50
2019-03-24T04:36:39.090Z,40.03
2019-03-24T04:39:08.832Z,40.77
2019-03-24T04:41:38.769Z,46.45
2019-03-24T04:44:08.601Z,42.90
2019-03-24T04:46:38.392Z,39.13
2019-03-24T04:49:08.204Z,42.27
2019-03-24T04:51:37.955Z,40.77
2019-03-24T04:54:07.757Z,41.37
2019-03-24T04:56:37.851Z,42.73
2019-03-24T04:59:08.201Z,44.83
2019-03-24T05:01:38.484Z,43.50
2019-03-24T05:04:08.369Z,43.73
2019-03-24T05:06:38.261Z,42.30
2019-03-24T05:09:08.010Z,39.98
2019-03-24T05:11:37.835Z,42.35
2019-03-24T05:14:08.168Z,41.45
2019-03-24T05:16:37.936Z,42.83
2019-03-24T05:19:07.771Z,51.02
2019-03-24T05:21:37.641Z,45.95
2019-03-24T05:24:07.360Z,39.03
2019-03-24T05:26:49.398Z,45.10
2019-03-24T05:29:19.143Z,45.00
2019-03-24T05:31:48.964Z,44.87
2019-03-24T05:34:18.793Z,43.10
2019-03-24T05:36:48.595Z,44.37
2019-03-24T05:39:18.804Z,42.77
2019-03-24T05:41:49.017Z,40.80
2019-03-24T05:44:18.667Z,41.67
2019-03-24T05:46:48.614Z,41.30
2019-03-24T05:49:18.934Z,42.97
2019-03-24T05:51:48.923Z,43.40
2019-03-24T05:54:19.446Z,42.50
2019-03-24T05:56:49.777Z,40.47
2019-03-24T05:59:29.193Z,40.43
2019-03-24T06:01:59.048Z,38.07
2019-03-24T06:04:28.854Z,41.57
2019-03-24T06:06:58.588Z,37.80
2019-03-24T06:09:28.756Z,39.77
2019-03-24T06:11:58.892Z,37.73
2019-03-24T06:14:29.232Z,42.37
2019-03-24T06:16:59.566Z,36.30
2019-03-24T06:19:29.502Z,38.15
2019-03-24T06:21:59.252Z,37.87
2019-03-24T06:24:29.134Z,37.20
2019-03-24T06:26:59.623Z,39.10
2019-03-24T06:29:29.476Z,36.97
2019-03-24T06:31:59.735Z,35.83
2019-03-24T06:34:29.679Z,38.50
2019-03-24T06:36:59.527Z,36.03
2019-03-24T06:39:29.275Z,36.40
2019-03-24T06:41:59.739Z,35.17
2019-03-24T06:44:29.517Z,37.63
2019-03-24T06:46:59.336Z,34.40
2019-03-24T06:49:29.126Z,34.80
2019-03-24T06:51:58.921Z,34.80
2019-03-24T06:54:29.121Z,33.90
2019-03-24T06:56:59.154Z,36.37
2019-03-24T06:59:29.782Z,35.23
2019-03-24T07:01:59.588Z,34.38
2019-03-24T07:04:29.747Z,33.70
2019-03-24T07:06:59.522Z,35.53
2019-03-24T07:09:29.564Z,33.40
2019-03-24T07:12:00.242Z,33.27
2019-03-24T07:14:30.097Z,35.30
2019-03-24T07:16:59.919Z,34.77
2019-03-24T07:19:29.776Z,33.60
2019-03-24T07:21:59.642Z,34.43
2019-03-24T07:24:29.380Z,35.57
2019-03-24T07:26:59.649Z,32.73
2019-03-24T07:29:29.715Z,35.80
2019-03-24T07:31:59.503Z,33.00
2019-03-24T07:34:29.375Z,33.07
2019-03-24T07:36:59.329Z,31.43
2019-03-24T07:39:29.172Z,32.15
2019-03-24T07:42:00.361Z,33.73
2019-03-24T07:44:31.136Z,31.10
2019-03-24T07:47:01.625Z,32.97
2019-03-24T07:49:31.732Z,32.10
2019-03-24T07:52:02.877Z,30.17
2019-03-24T07:54:32.672Z,30.97
2019-03-24T07:57:02.918Z,31.63
2019-03-24T07:59:32.710Z,29.10
2019-03-24T08:02:02.906Z,29.30
2019-03-24T08:04:32.986Z,29.33
2019-03-24T08:07:02.778Z,28.63
2019-03-24T08:09:32.629Z,29.80
2019-03-24T08:12:02.701Z,30.90
2019-03-24T08:14:32.496Z,29.30
2019-03-24T08:17:02.425Z,29.23
2019-03-24T08:19:32.300Z,30.40
2019-03-24T08:22:02.179Z,29.67
2019-03-24T08:24:32.089Z,29.37
2019-03-24T08:27:02.520Z,27.83
2019-03-24T08:29:32.328Z,26.87
2019-03-24T08:32:02.145Z,28.73
2019-03-24T08:34:31.969Z,27.73
2019-03-24T08:37:01.838Z,28.05
2019-03-24T08:39:31.790Z,27.70
2019-03-24T08:42:01.948Z,26.77
2019-03-24T08:44:31.746Z,30.93
2019-03-24T08:47:01.443Z,27.40
2019-03-24T08:49:31.320Z,28.53
2019-03-24T08:52:01.102Z,27.70
2019-03-24T08:54:30.864Z,28.13
2019-03-24T08:57:00.747Z,27.45
2019-03-24T08:59:30.533Z,28.20
2019-03-24T09:02:00.744Z,27.70
2019-03-24T09:04:30.844Z,26.90
2019-03-24T09:07:01.064Z,28.10
2019-03-24T09:09:31.247Z,25.83
2019-03-24T09:12:01.228Z,27.03
2019-03-24T09:14:31.555Z,26.87
2019-03-24T09:17:01.434Z,26.47
2019-03-24T09:19:31.392Z,27.60
2019-03-24T09:22:01.543Z,28.13
2019-03-24T09:24:31.499Z,27.00
2019-03-24T09:27:01.713Z,24.47
2019-03-24T09:29:31.555Z,25.37
2019-03-24T09:32:01.465Z,27.63
2019-03-24T09:34:31.776Z,26.67
2019-03-24T09:37:01.530Z,25.17
2019-03-24T09:39:31.331Z,25.63
2019-03-24T09:42:04.144Z,27.47
2019-03-24T09:44:34.438Z,26.37
2019-03-24T09:47:04.343Z,24.67
2019-03-24T09:49:34.167Z,27.67
2019-03-24T09:52:03.874Z,26.53
2019-03-24T09:54:34.110Z,26.80
2019-03-24T09:57:03.932Z,25.67
2019-03-24T09:59:33.787Z,26.37
2019-03-24T10:02:03.573Z,28.63
2019-03-24T10:04:33.902Z,26.67
2019-03-24T10:07:03.781Z,26.90
2019-03-24T10:09:33.842Z,28.70
2019-03-24T10:12:03.757Z,28.87
2019-03-24T10:14:34.144Z,26.40
2019-03-24T10:17:04.966Z,26.57
2019-03-24T10:19:34.949Z,24.97
2019-03-24T10:22:04.838Z,25.75
2019-03-24T10:24:34.652Z,26.10
2019-03-24T10:27:04.436Z,25.70
2019-03-24T10:29:34.787Z,26.33
2019-03-24T10:32:04.684Z,25.65
2019-03-24T10:34:34.524Z,28.53
2019-03-24T10:37:04.750Z,24.00
2019-03-24T10:39:35.029Z,26.15
2019-03-24T10:42:04.910Z,24.57
2019-03-24T10:44:34.634Z,25.17
2019-03-24T10:47:04.444Z,25.90
2019-03-24T10:49:34.210Z,25.53
2019-03-24T10:52:06.551Z,26.10
2019-03-24T10:54:36.731Z,26.27
2019-03-24T10:57:06.636Z,25.97
2019-03-24T10:59:39.639Z,27.27
2019-03-24T11:02:09.467Z,27.60
2019-03-24T11:04:40.621Z,25.33
2019-03-24T11:07:10.922Z,26.83
2019-03-24T11:09:41.062Z,26.13
2019-03-24T11:12:11.334Z,26.15
2019-03-24T11:14:41.175Z,24.43
2019-03-24T11:17:11.717Z,27.33
2019-03-24T11:19:44.046Z,26.60
2019-03-24T11:22:15.105Z,26.50
2019-03-24T11:24:44.888Z,26.00
2019-03-24T11:27:14.947Z,24.90
2019-03-24T11:29:45.662Z,25.80
2019-03-24T11:32:15.602Z,24.50
2019-03-24T11:34:45.373Z,26.07
2019-03-24T11:37:15.183Z,26.27
2019-03-24T11:39:45.289Z,25.07
2019-03-24T11:42:15.395Z,25.27
2019-03-24T11:44:45.547Z,24.50
2019-03-24T11:47:26.057Z,25.43
2019-03-24T11:49:49.070Z,25.23
2019-03-24T11:52:18.762Z,24.00
2019-03-24T11:54:49.069Z,22.67
2019-03-24T11:57:18.891Z,24.27
2019-03-24T11:59:49.240Z,24.37
2019-03-24T12:02:19.691Z,25.00
2019-03-24T12:04:50.003Z,25.30
2019-03-24T12:07:19.989Z,24.45
2019-03-24T12:09:51.346Z,24.70
2019-03-24T12:12:21.555Z,25.55
2019-03-24T12:14:53.909Z,23.38
2019-03-24T12:17:24.127Z,22.60
2019-03-24T12:19:57.049Z,22.87
2019-03-24T12:22:26.004Z,25.90
2019-03-24T12:24:55.853Z,21.47
2019-03-24T12:27:25.692Z,21.20
2019-03-24T12:29:56.281Z,21.30
2019-03-24T12:32:38.794Z,20.90
2019-03-24T12:35:37.166Z,21.50
2019-03-24T12:38:21.761Z,20.77
2019-03-24T12:40:57.064Z,21.70
2019-03-24T12:43:36.142Z,20.57
2019-03-24T12:46:45.497Z,22.30
2019-03-24T12:49:24.880Z,20.10
2019-03-24T12:51:59.325Z,20.07
2019-03-24T12:54:35.367Z,23.20
2019-03-24T12:57:12.223Z,20.87
2019-03-24T13:08:05.236Z,21.00
2019-03-24T13:21:16.188Z,20.23
2019-03-24T13:23:55.211Z,22.05
2019-03-24T13:26:28.632Z,21.87
2019-03-24T13:28:58.641Z,22.45
2019-03-24T13:31:31.821Z,23.10
2019-03-24T13:41:50.154Z,22.83
2019-03-24T13:44:22.681Z,22.60
2019-03-24T13:47:04.173Z,24.00
2019-03-24T13:49:37.266Z,22.67
2019-03-24T13:57:28.080Z,21.50
2019-03-24T13:59:12.040Z,20.53
2019-03-24T14:01:42.013Z,20.50
2019-03-24T14:04:11.937Z,20.10
2019-03-24T14:06:42.037Z,19.40
2019-03-24T14:09:13.692Z,19.50
2019-03-24T14:11:43.544Z,19.90
2019-03-24T14:14:13.390Z,19.40
2019-03-24T14:16:43.172Z,20.93
2019-03-24T14:19:13.119Z,20.33
2019-03-24T14:21:43.371Z,21.13
2019-03-24T14:24:13.181Z,19.17
2019-03-24T14:26:43.066Z,19.17
2019-03-24T14:29:13.007Z,20.33
2019-03-24T14:31:43.231Z,18.20
2019-03-24T14:34:13.688Z,19.00
2019-03-24T14:36:46.406Z,20.07
2019-03-24T14:40:04.466Z,18.83
2019-03-24T14:43:33.697Z,19.00
2019-03-24T14:46:25.609Z,20.80
2019-03-24T14:48:54.358Z,18.57
2019-03-24T14:51:26.537Z,17.90
2019-03-24T14:54:09.904Z,20.63
2019-03-24T15:04:23.117Z,16.53
2019-03-24T15:07:10.861Z,18.73
2019-03-24T15:09:50.859Z,17.93
2019-03-24T15:12:19.875Z,18.40
2019-03-24T15:15:02.509Z,18.00
2019-03-24T15:17:51.455Z,18.17
2019-03-24T15:20:24.710Z,16.57
2019-03-24T15:22:57.405Z,17.07
2019-03-24T15:25:36.528Z,16.47
2019-03-24T15:28:10.430Z,15.70
2019-03-24T15:30:40.348Z,17.27
2019-03-24T15:33:10.663Z,16.03
2019-03-24T15:35:40.629Z,15.43
2019-03-24T15:38:10.480Z,14.38
2019-03-24T15:40:41.262Z,14.03
2019-03-24T15:43:11.179Z,13.93
2019-03-24T15:45:41.490Z,12.77
2019-03-24T15:48:11.411Z,14.37
2019-03-24T15:50:41.293Z,13.50
2019-03-24T15:53:11.839Z,14.07
2019-03-24T15:55:43.243Z,13.87
2019-03-24T15:58:13.688Z,13.57
2019-03-24T16:00:45.956Z,14.77
2019-03-24T16:03:15.813Z,14.30
2019-03-24T16:05:49.206Z,14.20
2019-03-24T16:08:19.143Z,13.47
2019-03-24T16:10:48.914Z,13.73
2019-03-24T16:13:18.808Z,12.30
2019-03-24T16:15:48.681Z,15.50
2019-03-24T16:18:18.535Z,13.17
2019-03-24T16:20:48.595Z,15.10
2019-03-24T16:23:19.170Z,12.53
2019-03-24T16:25:49.046Z,14.20
2019-03-24T16:28:18.926Z,14.18
2019-03-24T16:30:48.808Z,14.38
2019-03-24T16:33:18.705Z,13.83
2019-03-24T16:35:48.613Z,13.77
2019-03-24T16:38:18.689Z,12.20
2019-03-24T16:40:49.200Z,11.57
2019-03-24T16:43:19.080Z,12.82
2019-03-24T16:45:48.857Z,12.43
2019-03-24T16:48:19.106Z,12.77
2019-03-24T16:50:49.229Z,11.87
2019-03-24T16:53:19.194Z,13.37
2019-03-24T16:55:49.516Z,11.70
2019-03-24T16:58:19.483Z,13.63
2019-03-24T17:00:49.489Z,12.30
2019-03-24T17:03:19.430Z,12.80
2019-03-24T17:05:49.622Z,12.27
2019-03-24T17:08:19.719Z,13.60
2019-03-24T17:10:51.066Z,14.23
2019-03-24T17:13:21.023Z,14.87
2019-03-24T17:15:51.048Z,13.53
2019-03-24T17:18:25.213Z,12.97
2019-03-24T17:20:55.048Z,13.60
2019-03-24T17:23:24.941Z,15.20
2019-03-24T17:25:54.831Z,15.05
2019-03-24T17:28:24.701Z,14.20
2019-03-24T17:30:54.790Z,14.43
2019-03-24T17:33:25.089Z,13.90
2019-03-24T17:35:55.657Z,14.13
2019-03-24T17:38:25.566Z,13.03
2019-03-24T17:40:55.677Z,12.60
2019-03-24T17:43:25.563Z,12.17
2019-03-24T17:45:55.416Z,12.20
2019-03-24T17:48:25.707Z,12.07
2019-03-24T17:50:55.504Z,12.43
2019-03-24T17:53:25.376Z,10.90
2019-03-24T17:55:55.288Z,10.03
2019-03-24T17:58:25.230Z,10.32
2019-03-24T18:00:56.543Z,11.83
2019-03-24T18:03:27.172Z,11.70
2019-03-24T18:05:59.559Z,12.20
2019-03-24T18:08:29.113Z,12.33
2019-03-24T18:10:58.923Z,11.40
2019-03-24T18:13:28.829Z,12.47
2019-03-24T18:15:58.657Z,13.80
2019-03-24T18:18:28.515Z,13.20
2019-03-24T18:20:58.446Z,14.03
2019-03-24T18:23:28.371Z,14.28
2019-03-24T18:25:58.713Z,14.30
2019-03-24T18:28:28.611Z,14.45
2019-03-24T18:30:58.543Z,14.20
2019-03-24T18:33:28.405Z,14.05
2019-03-24T18:35:58.392Z,14.33
2019-03-24T18:38:28.293Z,14.73
2019-03-24T18:40:58.192Z,15.00
2019-03-24T18:43:28.056Z,14.53
2019-03-24T18:45:58.352Z,16.87
2019-03-24T18:48:28.128Z,16.47
2019-03-24T18:50:57.924Z,16.47
2019-03-24T18:53:27.752Z,16.67
2019-03-24T18:55:57.799Z,18.05
2019-03-24T18:58:28.032Z,16.23
2019-03-24T19:00:57.770Z,17.00
2019-03-24T19:03:27.595Z,14.57
2019-03-24T19:05:57.482Z,15.20
2019-03-24T19:08:27.379Z,15.73
2019-03-24T19:10:57.880Z,14.70
2019-03-24T19:13:27.717Z,14.80
2019-03-24T19:15:58.311Z,15.40
2019-03-24T19:18:28.175Z,15.17
2019-03-24T19:20:58.115Z,13.03
2019-03-24T19:23:27.958Z,13.60
2019-03-24T19:25:57.792Z,13.62
2019-03-24T19:28:27.619Z,15.37
2019-03-24T19:30:57.488Z,14.00
2019-03-24T19:33:29.541Z,12.80
2019-03-24T19:35:59.147Z,12.63
2019-03-24T19:38:30.672Z,13.53
2019-03-24T19:41:00.883Z,13.23
2019-03-24T19:43:30.811Z,12.25
2019-03-24T19:46:00.693Z,12.17
2019-03-24T19:48:30.618Z,10.80
2019-03-24T19:51:00.854Z,10.47
2019-03-24T19:53:30.743Z,10.20
2019-03-24T19:56:00.562Z,10.30
2019-03-24T19:58:30.438Z,9.37
2019-03-24T20:01:00.312Z,8.53
2019-03-24T20:03:30.191Z,7.83
2019-03-24T20:06:00.052Z,8.07
2019-03-24T20:08:29.898Z,7.37
2019-03-24T20:11:01.255Z,6.90
2019-03-24T20:13:31.328Z,6.70
2019-03-24T20:16:01.188Z,5.47
2019-03-24T20:18:30.989Z,6.10
2019-03-24T20:21:01.308Z,5.12
2019-03-24T20:23:31.627Z,5.70
2019-03-24T20:26:01.483Z,4.57
2019-03-24T20:28:31.355Z,4.30
2019-03-24T20:31:01.198Z,4.60
2019-03-24T20:33:32.555Z,4.40
2019-03-24T20:36:02.596Z,4.40
2019-03-24T20:38:32.821Z,3.70
2019-03-24T20:41:02.787Z,3.87
2019-03-24T20:43:33.566Z,3.40
2019-03-24T20:46:03.671Z,4.70
2019-03-24T20:48:33.732Z,4.30
2019-03-24T20:51:03.565Z,3.77
2019-03-24T20:53:33.913Z,4.10
2019-03-24T20:56:03.792Z,3.65
2019-03-24T20:58:33.690Z,3.30
2019-03-24T21:01:03.762Z,3.83
2019-03-24T21:03:33.727Z,4.20
2019-03-24T21:06:03.803Z,3.25
2019-03-24T21:08:33.617Z,3.70
2019-03-24T21:11:03.587Z,3.17
2019-03-24T21:13:33.875Z,3.73
2019-03-24T21:16:04.202Z,3.35
2019-03-24T21:18:34.018Z,2.97
2019-03-24T21:21:03.766Z,3.00
2019-03-24T21:23:33.531Z,3.30
2019-03-24T21:26:03.292Z,3.00
2019-03-24T21:28:33.436Z,3.10
2019-03-24T21:31:03.191Z,3.00
2019-03-24T21:33:33.485Z,2.73
2019-03-24T21:36:04.184Z,2.80
2019-03-24T21:38:36.031Z,2.93
2019-03-24T21:41:06.020Z,2.57
2019-03-24T21:43:36.750Z,2.40
2019-03-24T21:46:12.463Z,3.40
2019-03-24T21:48:42.253Z,3.03
2019-03-24T21:51:41.542Z,3.80
2019-03-24T21:54:14.601Z,2.80
2019-03-24T21:56:44.825Z,3.27
2019-03-24T21:59:15.543Z,2.73
2019-03-24T22:01:45.847Z,3.40
2019-03-24T22:04:16.133Z,3.05
2019-03-24T22:06:46.245Z,3.00
2019-03-24T22:09:16.111Z,2.53
2019-03-24T22:11:45.926Z,3.27
2019-03-24T22:14:15.681Z,2.90
2019-03-24T22:16:45.392Z,2.53
2019-03-24T22:19:15.787Z,4.30
2019-03-24T22:21:45.801Z,2.87
2019-03-24T22:24:15.577Z,3.20
2019-03-24T22:26:45.769Z,2.53
2019-03-24T22:29:16.032Z,2.50
2019-03-24T22:31:46.112Z,3.27
2019-03-24T22:34:16.000Z,3.53
2019-03-24T22:36:45.958Z,3.47
2019-03-24T22:39:15.765Z,3.65
2019-03-24T22:41:45.571Z,2.73
2019-03-24T22:44:15.393Z,3.37
2019-03-24T22:46:45.701Z,3.23
2019-03-24T22:49:16.106Z,3.77
2019-03-24T22:51:45.939Z,3.10
2019-03-24T22:54:16.015Z,2.87
2019-03-24T22:56:45.900Z,3.30
2019-03-24T22:59:16.907Z,2.65
2019-03-24T23:01:48.524Z,2.60
2019-03-24T23:04:19.071Z,3.13
2019-03-24T23:06:49.270Z,3.27
2019-03-24T23:09:19.165Z,2.53
2019-03-24T23:11:49.751Z,2.60
2019-03-24T23:14:19.791Z,3.02
2019-03-24T23:16:49.589Z,3.00
2019-03-24T23:19:19.320Z,2.97
2019-03-24T23:21:50.018Z,2.60
2019-03-24T23:24:19.798Z,2.77
2019-03-24T23:26:50.434Z,3.00
2019-03-24T23:29:20.223Z,3.47
2019-03-24T23:31:51.562Z,2.90
2019-03-24T23:34:21.420Z,3.20
2019-03-24T23:36:51.516Z,2.87
2019-03-24T23:39:21.555Z,2.93
2019-03-24T23:41:51.367Z,3.33
2019-03-24T23:44:21.161Z,3.33
2019-03-24T23:46:51.328Z,3.43
2019-03-24T23:49:21.519Z,2.93
2019-03-24T23:51:51.276Z,2.83
2019-03-24T23:54:27.088Z,2.57
2019-03-24T23:56:52.710Z,2.80
2019-03-24T23:59:22.486Z,3.17
